Terminal Aerodrome Forecast
Issued by NWS

Home | Current Version | Previous Version | Text Only | Print | Product List | Glossary On
Versions: 1 2 3 4 5 6 7 8 9 10 11 12 13 14 15 16 17 18 19
000
FTUS41 KPBZ 201302 AAA
TAFAGC
TAF AMD
KAGC 201302Z 2013/2112 22003KT 1/2SM FG OVC002
     FM201430 VRB04KT 3SM BR SCT005
     FM201600 VRB04KT P6SM SCT250=

USA.gov is the U.S. government's official web portal to all federal, state and local government web resources and services.